createdAt,value
2023-04-15T00:01:19.850Z,2.65
2023-04-15T00:03:50.105Z,2.64
2023-04-15T00:06:19.594Z,2.36
2023-04-15T00:08:48.251Z,2.37
2023-04-15T00:11:16.599Z,2.43
2023-04-15T00:13:45.806Z,2.48
2023-04-15T00:16:14.141Z,2.71
2023-04-15T00:18:42.765Z,2.37
2023-04-15T00:21:12.685Z,2.40
2023-04-15T00:23:41.276Z,2.07
2023-04-15T00:26:10.074Z,2.34
2023-04-15T00:28:38.836Z,2.05
2023-04-15T00:31:07.506Z,2.04
2023-04-15T00:33:36.841Z,2.05
2023-04-15T00:36:08.662Z,2.16
2023-04-15T00:38:39.743Z,2.28
2023-04-15T00:41:08.339Z,2.11
2023-04-15T00:43:36.746Z,1.81
2023-04-15T00:46:07.707Z,2.08
2023-04-15T00:48:37.041Z,2.34
2023-04-15T00:51:05.513Z,1.94
2023-04-15T00:53:34.624Z,2.08
2023-04-15T00:56:04.148Z,2.29
2023-04-15T00:58:32.638Z,2.32
2023-04-15T01:01:01.515Z,2.12
2023-04-15T01:03:31.857Z,2.16
2023-04-15T01:06:04.023Z,1.77
2023-04-15T01:08:33.004Z,2.06
2023-04-15T01:11:03.709Z,2.44
2023-04-15T01:13:35.920Z,2.23
2023-04-15T01:16:04.614Z,1.93
2023-04-15T01:18:32.891Z,2.18
2023-04-15T01:21:03.810Z,1.93
2023-04-15T01:23:34.113Z,1.78
2023-04-15T01:26:04.535Z,1.49
2023-04-15T01:28:33.565Z,1.80
2023-04-15T01:31:09.268Z,1.88
2023-04-15T01:33:41.429Z,1.65
2023-04-15T01:36:28.246Z,1.60
2023-04-15T01:38:57.293Z,1.55
2023-04-15T01:41:28.893Z,1.64
2023-04-15T01:43:58.467Z,1.51
2023-04-15T01:46:28.264Z,1.76
2023-04-15T01:48:58.237Z,1.47
2023-04-15T01:51:28.656Z,1.62
2023-04-15T01:53:58.271Z,1.56
2023-04-15T01:56:29.934Z,1.32
2023-04-15T01:58:59.945Z,1.68
2023-04-15T02:01:30.405Z,1.41
2023-04-15T02:04:02.859Z,1.42
2023-04-15T02:06:34.561Z,1.72
2023-04-15T02:09:04.466Z,1.78
2023-04-15T02:11:37.343Z,1.35
2023-04-15T02:14:07.294Z,1.74
2023-04-15T02:16:37.040Z,1.73
2023-04-15T02:19:06.691Z,1.70
2023-04-15T02:21:36.676Z,1.75
2023-04-15T02:24:06.685Z,1.76
2023-04-15T02:26:37.700Z,2.09
2023-04-15T02:29:33.070Z,3.04
2023-04-15T02:32:03.985Z,3.61
2023-04-15T02:34:33.822Z,2.75
2023-04-15T02:37:04.037Z,3.63
2023-04-15T02:39:33.719Z,4.02
2023-04-15T02:42:06.096Z,4.51
2023-04-15T02:44:36.682Z,4.40
2023-04-15T02:47:07.639Z,4.39
2023-04-15T02:49:37.328Z,4.32
2023-04-15T02:52:07.968Z,4.78
2023-04-15T02:54:37.701Z,4.33
2023-04-15T02:57:08.744Z,3.38
2023-04-15T02:59:39.549Z,4.39
2023-04-15T03:02:09.334Z,4.40
2023-04-15T03:04:39.923Z,3.89
2023-04-15T03:07:09.691Z,3.94
2023-04-15T03:09:40.542Z,4.02
2023-04-15T03:12:12.001Z,3.65
2023-04-15T03:14:41.745Z,3.92
2023-04-15T03:17:11.619Z,3.23
2023-04-15T03:19:41.948Z,3.50
2023-04-15T03:22:12.308Z,3.27
2023-04-15T03:24:41.989Z,2.62
2023-04-15T03:27:13.348Z,3.24
2023-04-15T03:29:43.395Z,3.23
2023-04-15T03:32:15.285Z,2.77
2023-04-15T03:34:45.248Z,2.90
2023-04-15T03:37:14.904Z,3.50
2023-04-15T03:39:44.608Z,2.93
2023-04-15T03:42:15.836Z,2.73
2023-04-15T03:44:45.506Z,3.12
2023-04-15T03:47:15.260Z,3.18
2023-04-15T03:49:44.960Z,3.09
2023-04-15T03:52:14.598Z,3.31
2023-04-15T03:54:44.162Z,3.76
2023-04-15T03:57:15.290Z,3.84
2023-04-15T03:59:45.142Z,3.98
2023-04-15T04:02:14.931Z,3.81
2023-04-15T04:04:44.950Z,4.23
2023-04-15T04:07:17.798Z,3.02
2023-04-15T04:09:47.578Z,3.67
2023-04-15T04:12:18.850Z,4.14
2023-04-15T04:14:48.522Z,4.68
2023-04-15T04:17:20.150Z,4.08
2023-04-15T04:19:49.991Z,3.68
2023-04-15T04:22:19.781Z,3.51
2023-04-15T04:24:49.337Z,3.18
2023-04-15T04:27:20.449Z,3.92
2023-04-15T04:29:50.239Z,4.30
2023-04-15T04:32:39.626Z,3.57
2023-04-15T04:35:10.297Z,4.03
2023-04-15T04:37:40.113Z,4.43
2023-04-15T04:40:10.852Z,5.40
2023-04-15T04:42:41.980Z,5.31
2023-04-15T04:45:12.071Z,5.16
2023-04-15T04:47:41.790Z,4.36
2023-04-15T04:50:11.967Z,4.42
2023-04-15T04:52:41.702Z,4.36
2023-04-15T04:55:11.361Z,5.55
2023-04-15T04:57:43.548Z,5.22
2023-04-15T05:00:14.326Z,5.68
2023-04-15T05:02:44.336Z,5.83
2023-04-15T05:05:18.798Z,6.01
2023-04-15T05:07:49.371Z,5.06
2023-04-15T05:10:20.442Z,5.81
2023-04-15T05:12:52.158Z,6.11
2023-04-15T05:15:21.996Z,6.52
2023-04-15T05:17:54.601Z,6.74
2023-04-15T05:20:24.570Z,6.15
2023-04-15T05:22:54.324Z,6.23
2023-04-15T05:25:24.116Z,4.48
2023-04-15T05:27:55.466Z,4.80
2023-04-15T05:30:25.257Z,5.14
2023-04-15T05:32:55.027Z,5.90
2023-04-15T05:35:24.771Z,5.74
2023-04-15T05:37:54.391Z,5.26
2023-04-15T05:40:24.481Z,5.89
2023-04-15T05:42:55.644Z,6.38
2023-04-15T05:45:25.425Z,5.41
2023-04-15T05:47:55.258Z,5.91
2023-04-15T05:50:25.852Z,6.80
2023-04-15T05:52:56.152Z,5.40
2023-04-15T05:55:25.919Z,6.41
2023-04-15T05:57:57.335Z,5.27
2023-04-15T06:00:27.504Z,5.31
2023-04-15T06:02:58.070Z,6.48
2023-04-15T06:05:28.273Z,6.69
2023-04-15T06:07:58.055Z,7.80
2023-04-15T06:10:27.879Z,6.00
2023-04-15T06:12:59.121Z,6.44
2023-04-15T06:15:28.946Z,6.39
2023-04-15T06:17:59.017Z,6.42
2023-04-15T06:20:31.463Z,6.47
2023-04-15T06:23:20.882Z,6.85
2023-04-15T06:25:59.670Z,5.09
2023-04-15T06:31:21.711Z,6.68
2023-04-15T06:33:57.423Z,6.63
2023-04-15T06:36:28.087Z,6.84
2023-04-15T06:39:05.500Z,6.41
2023-04-15T06:41:35.791Z,6.03
2023-04-15T06:44:07.273Z,6.68
2023-04-15T06:46:39.809Z,7.37
2023-04-15T06:49:10.036Z,7.62
2023-04-15T06:51:44.327Z,7.36
2023-04-15T06:54:15.239Z,7.15
2023-04-15T06:56:44.995Z,6.07
2023-04-15T06:59:20.006Z,7.65
2023-04-15T07:01:53.309Z,6.72
2023-04-15T07:04:28.040Z,6.62
2023-04-15T07:06:58.076Z,5.97
2023-04-15T07:09:29.750Z,7.20
2023-04-15T07:12:00.098Z,7.27
2023-04-15T07:14:31.433Z,8.70
2023-04-15T07:17:01.567Z,8.06
2023-04-15T07:19:43.803Z,8.34
2023-04-15T07:22:17.801Z,8.71
2023-04-15T07:24:48.587Z,7.34
2023-04-15T07:27:24.221Z,7.63
2023-04-15T07:29:55.506Z,8.22
2023-04-15T07:32:26.393Z,8.80
2023-04-15T07:34:59.803Z,8.69
2023-04-15T07:37:59.650Z,8.08
2023-04-15T07:40:29.863Z,8.03
2023-04-15T07:43:00.790Z,8.28
2023-04-15T07:45:32.913Z,8.36
2023-04-15T07:48:19.774Z,8.11
2023-04-15T07:50:56.502Z,7.69
2023-04-15T07:53:31.744Z,7.52
2023-04-15T07:56:11.594Z,8.43
2023-04-15T07:58:59.968Z,9.49
2023-04-15T08:02:03.775Z,7.77
2023-04-15T08:04:43.892Z,8.87
2023-04-15T08:07:22.410Z,9.29
2023-04-15T08:09:52.900Z,9.72
2023-04-15T08:12:26.380Z,9.08
2023-04-15T08:16:22.068Z,8.41
2023-04-15T08:18:18.720Z,9.53
2023-04-15T08:24:03.350Z,8.42
2023-04-15T08:26:34.343Z,9.25
2023-04-15T08:29:05.132Z,9.40
2023-04-15T08:31:49.135Z,9.76
2023-04-15T08:34:20.609Z,8.64
2023-04-15T08:37:15.114Z,9.54
2023-04-15T08:39:49.594Z,9.48
2023-04-15T08:42:27.628Z,9.62
2023-04-15T08:45:02.759Z,7.67
2023-04-15T08:47:33.463Z,8.58
2023-04-15T08:50:12.419Z,9.10
2023-04-15T08:52:42.676Z,9.86
2023-04-15T08:55:19.302Z,9.32
2023-04-15T08:58:02.694Z,9.68
2023-04-15T09:00:33.764Z,9.50
2023-04-15T09:03:06.901Z,8.97
2023-04-15T09:05:42.512Z,8.79
2023-04-15T09:08:17.272Z,8.48
2023-04-15T09:10:56.245Z,8.68
2023-04-15T09:13:26.698Z,8.26
2023-04-15T09:15:58.679Z,8.96
2023-04-15T09:18:35.387Z,9.61
2023-04-15T09:21:20.783Z,9.51
2023-04-15T09:27:55.714Z,9.03
2023-04-15T09:30:26.210Z,9.36
2023-04-15T09:33:21.551Z,9.79
2023-04-15T09:36:05.757Z,8.45
2023-04-15T09:38:57.319Z,8.92
2023-04-15T09:41:29.023Z,9.65
2023-04-15T09:44:11.804Z,9.90
2023-04-15T09:46:45.695Z,10.43
2023-04-15T09:49:16.267Z,9.90
2023-04-15T09:51:57.541Z,9.42
2023-04-15T09:54:53.052Z,10.39
2023-04-15T09:57:23.807Z,9.53
2023-04-15T09:59:55.168Z,9.74
2023-04-15T10:02:26.283Z,10.33
2023-04-15T10:04:57.431Z,9.93
2023-04-15T10:07:34.364Z,10.34
2023-04-15T10:10:09.726Z,10.58
2023-04-15T10:12:42.805Z,10.62
2023-04-15T10:15:17.741Z,10.75
2023-04-15T10:17:52.228Z,10.35
2023-04-15T10:20:24.140Z,9.64
2023-04-15T10:22:55.077Z,8.97
2023-04-15T10:25:28.706Z,10.37
2023-04-15T10:27:59.094Z,11.17
2023-04-15T10:30:29.320Z,11.14
2023-04-15T10:32:59.116Z,9.90
2023-04-15T10:35:30.831Z,10.74
2023-04-15T10:38:00.624Z,11.52
2023-04-15T10:40:33.500Z,11.31
2023-04-15T10:43:04.029Z,11.46
2023-04-15T10:45:37.015Z,11.77
2023-04-15T10:48:16.812Z,9.99
2023-04-15T10:51:09.606Z,10.41
2023-04-15T10:54:23.947Z,11.93
2023-04-15T10:57:18.839Z,11.93
2023-04-15T11:00:12.671Z,11.88
2023-04-15T11:02:46.817Z,10.91
2023-04-15T11:05:31.106Z,11.02
2023-04-15T11:08:01.015Z,12.00
2023-04-15T11:10:55.555Z,12.72
2023-04-15T11:13:34.462Z,11.84
2023-04-15T11:16:05.103Z,12.31
2023-04-15T11:18:35.944Z,12.52
2023-04-15T11:21:07.922Z,12.36
2023-04-15T11:23:44.291Z,11.21
2023-04-15T11:26:18.161Z,12.31
2023-04-15T11:28:49.445Z,12.09
2023-04-15T11:31:20.299Z,12.40
2023-04-15T11:33:56.847Z,12.07
2023-04-15T11:36:28.529Z,12.31
2023-04-15T11:39:00.639Z,10.80
2023-04-15T11:41:30.643Z,12.33
2023-04-15T11:44:05.794Z,12.67
2023-04-15T11:46:35.635Z,12.13
2023-04-15T11:49:06.101Z,12.24
2023-04-15T11:51:38.021Z,11.20
2023-04-15T11:54:09.702Z,12.31
2023-04-15T11:56:38.201Z,12.35
2023-04-15T11:59:08.024Z,11.13
2023-04-15T12:01:39.560Z,12.52
2023-04-15T12:04:13.582Z,11.71
2023-04-15T12:06:42.501Z,11.90
2023-04-15T12:09:12.594Z,12.53
2023-04-15T12:11:43.591Z,12.91
2023-04-15T12:14:22.529Z,12.41
2023-04-15T12:16:54.168Z,12.97
2023-04-15T12:19:30.419Z,12.87
2023-04-15T12:22:01.388Z,13.31
2023-04-15T12:24:33.556Z,12.91
2023-04-15T12:27:09.337Z,11.36
2023-04-15T12:29:43.256Z,11.68
2023-04-15T12:32:13.427Z,12.53
2023-04-15T12:35:11.940Z,12.38
2023-04-15T12:37:43.913Z,11.68
2023-04-15T12:40:18.464Z,12.04
2023-04-15T12:42:49.542Z,12.60
2023-04-15T12:45:19.608Z,12.54
2023-04-15T12:47:48.506Z,13.05
2023-04-15T12:50:17.840Z,12.53
2023-04-15T12:52:51.917Z,12.21
2023-04-15T12:55:20.732Z,12.60
2023-04-15T12:57:51.826Z,13.41
2023-04-15T13:00:22.456Z,13.44
2023-04-15T13:02:51.509Z,13.13
2023-04-15T13:05:19.968Z,13.26
2023-04-15T13:07:51.130Z,13.01
2023-04-15T13:10:21.099Z,12.45
2023-04-15T13:12:54.124Z,12.93
2023-04-15T13:15:26.162Z,13.17
2023-04-15T13:17:54.909Z,13.09
2023-04-15T13:20:26.744Z,13.18
2023-04-15T13:22:55.784Z,13.37
2023-04-15T13:25:28.040Z,12.39
2023-04-15T13:27:57.805Z,12.24
2023-04-15T13:30:29.094Z,12.53
2023-04-15T13:32:57.767Z,12.60
2023-04-15T13:35:26.954Z,12.11
2023-04-15T13:37:56.422Z,11.39
2023-04-15T13:40:25.109Z,11.97
2023-04-15T13:42:53.678Z,12.77
2023-04-15T13:45:22.568Z,12.64
2023-04-15T13:47:54.849Z,13.47
2023-04-15T13:50:29.665Z,12.49
2023-04-15T13:52:58.372Z,11.95
2023-04-15T13:55:28.768Z,12.54
2023-04-15T13:57:58.600Z,12.47
2023-04-15T14:00:27.183Z,12.33
2023-04-15T14:02:57.436Z,12.69
2023-04-15T14:05:27.878Z,12.73
2023-04-15T14:08:00.537Z,12.88
2023-04-15T14:10:29.169Z,13.04
2023-04-15T14:12:57.797Z,12.83
2023-04-15T14:15:26.159Z,12.69
2023-04-15T14:17:55.538Z,12.52
2023-04-15T14:20:25.476Z,12.59
2023-04-15T14:22:56.739Z,12.52
2023-04-15T14:25:33.825Z,12.37
2023-04-15T14:28:03.936Z,12.63
2023-04-15T14:30:32.551Z,12.52
2023-04-15T14:33:01.200Z,11.76
2023-04-15T14:35:31.249Z,11.96
2023-04-15T14:37:59.792Z,12.01
2023-04-15T14:40:28.208Z,11.67
2023-04-15T14:42:56.658Z,11.88
2023-04-15T14:45:25.107Z,12.28
2023-04-15T14:47:54.307Z,12.25
2023-04-15T14:50:23.309Z,12.07
2023-04-15T14:52:53.277Z,12.50
2023-04-15T14:55:36.512Z,12.53
2023-04-15T14:58:11.362Z,12.46
2023-04-15T15:00:45.341Z,12.43
2023-04-15T15:03:14.885Z,12.24
2023-04-15T15:05:47.920Z,12.35
2023-04-15T15:08:20.532Z,12.66
2023-04-15T15:10:50.021Z,12.81
2023-04-15T15:13:19.642Z,12.50
2023-04-15T15:15:54.050Z,12.35
2023-04-15T15:18:30.470Z,12.49
2023-04-15T15:21:01.191Z,12.65
2023-04-15T15:23:32.166Z,12.43
2023-04-15T15:26:00.829Z,12.08
2023-04-15T15:28:29.421Z,11.94
2023-04-15T15:31:00.722Z,12.09
2023-04-15T15:33:30.322Z,12.22
2023-04-15T15:36:04.478Z,12.28
2023-04-15T15:38:34.496Z,11.52
2023-04-15T15:41:03.189Z,11.85
2023-04-15T15:43:31.835Z,11.64
2023-04-15T15:46:00.987Z,11.89
2023-04-15T15:48:32.155Z,12.12
2023-04-15T15:51:04.432Z,12.27
2023-04-15T15:53:37.114Z,11.73
2023-04-15T15:56:06.385Z,11.40
2023-04-15T15:58:35.278Z,11.91
2023-04-15T16:01:12.822Z,11.88
2023-04-15T16:04:52.349Z,11.99
2023-04-15T16:10:58.240Z,11.45
2023-04-15T16:13:50.366Z,11.69
2023-04-15T16:24:45.218Z,11.36
2023-04-15T16:30:26.401Z,11.15
2023-04-15T16:32:57.696Z,11.57
2023-04-15T16:35:54.216Z,11.48
2023-04-15T16:38:25.840Z,11.23
2023-04-15T16:41:02.679Z,10.94
2023-04-15T16:43:37.241Z,10.94
2023-04-15T16:46:05.789Z,10.93
2023-04-15T16:48:58.717Z,10.83
2023-04-15T16:52:01.638Z,10.41
2023-04-15T16:54:43.844Z,10.46
2023-04-15T16:57:25.903Z,9.99
2023-04-15T17:17:06.286Z,9.58
2023-04-15T17:19:39.627Z,9.66
2023-04-15T17:22:15.777Z,9.81
2023-04-15T17:24:52.999Z,9.39
2023-04-15T17:31:16.394Z,9.32
2023-04-15T17:34:15.927Z,9.66
2023-04-15T17:38:29.481Z,9.37
2023-04-15T17:42:10.658Z,9.20
2023-04-15T17:46:06.048Z,9.30
2023-04-15T17:49:11.967Z,9.06
2023-04-15T17:52:00.539Z,9.03
2023-04-15T17:54:52.017Z,9.32
2023-04-15T17:57:40.568Z,9.32
2023-04-15T18:00:28.960Z,9.67
2023-04-15T18:03:17.791Z,9.46
2023-04-15T18:06:14.440Z,9.18
2023-04-15T18:09:03.427Z,9.23
2023-04-15T18:11:52.332Z,8.90
2023-04-15T18:14:40.471Z,9.24
2023-04-15T18:17:33.838Z,9.03
2023-04-15T18:20:16.897Z,8.71
2023-04-15T18:22:51.046Z,8.85
2023-04-15T18:25:20.168Z,8.79
2023-04-15T18:27:49.417Z,8.97
2023-04-15T18:30:18.301Z,8.16
2023-04-15T18:32:47.031Z,8.55
2023-04-15T18:35:17.225Z,8.44
2023-04-15T18:37:45.950Z,8.56
2023-04-15T18:40:19.387Z,8.38
2023-04-15T18:42:52.721Z,8.66
2023-04-15T18:45:31.618Z,8.55
2023-04-15T18:48:09.300Z,8.50
2023-04-15T18:50:38.538Z,8.53
2023-04-15T18:53:07.027Z,8.63
2023-04-15T18:55:47.210Z,8.57
2023-04-15T18:58:15.740Z,8.27
2023-04-15T19:00:44.458Z,8.48
2023-04-15T19:03:13.035Z,8.53
2023-04-15T19:05:41.578Z,7.97
2023-04-15T19:08:13.395Z,8.33
2023-04-15T19:10:46.476Z,8.70
2023-04-15T19:13:18.732Z,8.62
2023-04-15T19:15:49.940Z,8.62
2023-04-15T19:18:18.598Z,8.75
2023-04-15T19:20:47.327Z,8.74
2023-04-15T19:23:18.093Z,8.99
2023-04-15T19:25:48.087Z,8.80
2023-04-15T19:28:16.547Z,8.74
2023-04-15T19:30:45.059Z,8.65
2023-04-15T19:33:13.946Z,8.72
2023-04-15T19:35:42.357Z,8.64
2023-04-15T19:38:11.114Z,8.65
2023-04-15T19:40:39.968Z,8.73
2023-04-15T19:43:09.909Z,8.59
2023-04-15T19:45:40.272Z,8.69
2023-04-15T19:48:09.582Z,8.56
2023-04-15T19:50:38.132Z,8.62
2023-04-15T19:53:08.397Z,8.67
2023-04-15T19:55:36.879Z,8.59
2023-04-15T19:58:09.794Z,8.53
2023-04-15T20:00:42.811Z,8.52
2023-04-15T20:03:12.117Z,8.44
2023-04-15T20:05:40.999Z,8.53
2023-04-15T20:08:09.470Z,8.50
2023-04-15T20:10:38.131Z,8.46
2023-04-15T20:13:12.023Z,8.76
2023-04-15T20:15:41.983Z,8.53
2023-04-15T20:18:10.511Z,8.45
2023-04-15T20:20:41.054Z,8.37
2023-04-15T20:23:09.689Z,8.29
2023-04-15T20:25:38.140Z,8.20
2023-04-15T20:28:06.595Z,8.30
2023-04-15T20:30:39.397Z,8.11
2023-04-15T20:33:09.267Z,8.13
2023-04-15T20:35:37.992Z,7.98
2023-04-15T20:38:06.392Z,7.84
2023-04-15T20:40:34.930Z,8.06
2023-04-15T20:43:03.492Z,8.02
2023-04-15T20:45:31.909Z,8.00
2023-04-15T20:48:02.237Z,7.82
2023-04-15T20:50:33.014Z,7.82
2023-04-15T20:53:04.055Z,7.76
2023-04-15T20:55:32.615Z,7.88
2023-04-15T20:58:01.062Z,7.87
2023-04-15T21:00:29.503Z,7.87
2023-04-15T21:02:58.002Z,7.81
2023-04-15T21:05:26.437Z,7.89
2023-04-15T21:07:56.487Z,7.87
2023-04-15T21:10:25.391Z,8.03
2023-04-15T21:12:53.468Z,8.24
2023-04-15T21:15:21.913Z,7.96
2023-04-15T21:17:53.392Z,7.95
2023-04-15T21:20:21.915Z,7.88
2023-04-15T21:22:50.786Z,7.98
2023-04-15T21:25:20.418Z,8.29
2023-04-15T21:27:49.260Z,7.89
2023-04-15T21:30:17.761Z,7.76
2023-04-15T21:32:46.188Z,7.78
2023-04-15T21:35:14.787Z,7.77
2023-04-15T21:37:43.490Z,7.69
2023-04-15T21:40:11.890Z,7.86
2023-04-15T21:42:43.487Z,7.62
2023-04-15T21:45:12.924Z,7.51
2023-04-15T21:48:04.915Z,7.43
2023-04-15T21:50:33.444Z,7.39
2023-04-15T21:53:01.942Z,7.45
2023-04-15T21:55:31.556Z,7.42
2023-04-15T21:58:01.411Z,7.31
2023-04-15T22:00:32.488Z,7.26
2023-04-15T22:03:01.076Z,7.38
2023-04-15T22:05:29.567Z,7.33
2023-04-15T22:07:59.127Z,7.37
2023-04-15T22:10:28.759Z,7.29
2023-04-15T22:13:02.508Z,7.35
2023-04-15T22:15:38.284Z,7.34
2023-04-15T22:18:07.197Z,7.35
2023-04-15T22:20:35.618Z,7.65
2023-04-15T22:23:07.929Z,7.27
2023-04-15T22:25:37.257Z,7.13
2023-04-15T22:28:06.978Z,7.09
2023-04-15T22:30:38.950Z,7.07
2023-04-15T22:33:08.338Z,7.09
2023-04-15T22:35:37.550Z,7.09
2023-04-15T22:38:06.491Z,7.11
2023-04-15T22:40:34.630Z,7.31
2023-04-15T22:43:03.049Z,7.06
2023-04-15T22:45:31.582Z,6.97
2023-04-15T22:48:02.704Z,6.96
2023-04-15T22:50:31.154Z,6.86
2023-04-15T22:52:59.631Z,6.86
2023-04-15T22:55:29.997Z,6.74
2023-04-15T22:57:58.623Z,6.69
2023-04-15T23:00:32.685Z,6.72
2023-04-15T23:03:02.943Z,6.77
2023-04-15T23:05:31.760Z,6.77
2023-04-15T23:08:02.829Z,6.67
2023-04-15T23:10:31.388Z,6.65
2023-04-15T23:12:59.917Z,6.61
2023-04-15T23:15:28.469Z,6.56
2023-04-15T23:18:02.372Z,6.52
2023-04-15T23:20:35.134Z,6.60
2023-04-15T23:23:03.721Z,6.43
2023-04-15T23:25:32.189Z,6.44
2023-04-15T23:28:01.114Z,6.45
2023-04-15T23:30:29.704Z,6.48
2023-04-15T23:32:58.504Z,6.48
2023-04-15T23:35:27.387Z,6.84
2023-04-15T23:37:57.267Z,6.44
2023-04-15T23:40:25.777Z,6.37
2023-04-15T23:42:54.164Z,6.25
2023-04-15T23:45:22.630Z,6.25
2023-04-15T23:47:51.123Z,6.16
2023-04-15T23:50:19.649Z,6.16
2023-04-15T23:52:48.224Z,6.15
2023-04-15T23:55:19.223Z,6.08
2023-04-15T23:57:48.800Z,6.07
